createdAt,value
2018-07-11T00:00:19.865Z,952.79
2018-07-11T00:01:19.856Z,952.74
2018-07-11T00:02:19.848Z,952.79
2018-07-11T00:03:19.839Z,952.77
2018-07-11T00:04:19.831Z,952.76
2018-07-11T00:05:19.823Z,952.72
2018-07-11T00:06:19.815Z,952.74
2018-07-11T00:07:19.805Z,952.7
2018-07-11T00:08:19.796Z,952.71
2018-07-11T00:09:19.789Z,952.66
2018-07-11T00:10:19.781Z,952.67
2018-07-11T00:11:19.772Z,952.66
2018-07-11T00:12:19.763Z,952.63
2018-07-11T00:13:19.756Z,952.64
2018-07-11T00:14:19.748Z,952.66
2018-07-11T00:15:19.737Z,952.6
2018-07-11T00:16:19.729Z,952.6
2018-07-11T00:17:19.721Z,952.6
2018-07-11T00:18:19.712Z,952.57
2018-07-11T00:19:19.702Z,952.61
2018-07-11T00:20:19.694Z,952.59
2018-07-11T00:21:19.692Z,952.61
2018-07-11T00:22:19.679Z,952.6
2018-07-11T00:23:19.669Z,952.59
2018-07-11T00:24:19.660Z,952.63
2018-07-11T00:25:19.652Z,952.59
2018-07-11T00:26:19.644Z,952.59
2018-07-11T00:27:19.634Z,952.6
2018-07-11T00:28:19.626Z,952.59
2018-07-11T00:29:19.617Z,952.57
2018-07-11T00:30:19.606Z,952.59
2018-07-11T00:31:19.599Z,952.61
2018-07-11T00:32:19.591Z,952.57
2018-07-11T00:33:19.580Z,952.6
2018-07-11T00:34:19.572Z,952.6
2018-07-11T00:35:19.567Z,952.63
2018-07-11T00:36:19.554Z,952.63
2018-07-11T00:37:19.595Z,952.62
2018-07-11T00:38:19.536Z,952.62
2018-07-11T00:39:19.527Z,952.66
2018-07-11T00:40:19.520Z,952.67
2018-07-11T00:41:19.509Z,952.66
2018-07-11T00:42:19.502Z,952.61
2018-07-11T00:43:19.493Z,952.64
2018-07-11T00:44:19.492Z,952.64
2018-07-11T00:45:19.480Z,952.67
2018-07-11T00:46:19.468Z,952.62
2018-07-11T00:47:19.456Z,952.65
2018-07-11T00:48:19.446Z,952.66
2018-07-11T00:49:19.439Z,952.66
2018-07-11T00:50:19.429Z,952.63
2018-07-11T00:51:19.420Z,952.66
2018-07-11T00:52:19.410Z,952.68
2018-07-11T00:53:19.407Z,952.66
2018-07-11T00:54:19.393Z,952.66
2018-07-11T00:55:19.382Z,952.63
2018-07-11T00:56:19.373Z,952.62
2018-07-11T00:57:19.365Z,952.65
2018-07-11T00:58:19.355Z,952.62
2018-07-11T00:59:19.345Z,952.63
2018-07-11T01:00:19.341Z,952.62
2018-07-11T01:01:19.329Z,952.59
2018-07-11T01:02:19.320Z,952.56
2018-07-11T01:03:19.310Z,952.55
2018-07-11T01:04:19.302Z,952.61
2018-07-11T01:05:19.294Z,952.59
2018-07-11T01:06:19.282Z,952.59
2018-07-11T01:07:19.272Z,952.56
2018-07-11T01:08:19.270Z,952.56
2018-07-11T01:09:19.256Z,952.56
2018-07-11T01:10:19.244Z,952.57
2018-07-11T01:11:19.236Z,952.54
2018-07-11T01:12:19.228Z,952.53
2018-07-11T01:13:19.217Z,952.54
2018-07-11T01:14:19.208Z,952.54
2018-07-11T01:15:19.198Z,952.55
2018-07-11T01:16:19.190Z,952.54
2018-07-11T01:17:19.179Z,952.51
2018-07-11T01:18:19.171Z,952.54
2018-07-11T01:19:19.164Z,952.52
2018-07-11T01:20:19.153Z,952.49
2018-07-11T01:21:19.141Z,952.55
2018-07-11T01:22:19.132Z,952.52
2018-07-11T01:23:19.123Z,952.5
2018-07-11T01:24:19.111Z,952.54
2018-07-11T01:25:19.110Z,952.49
2018-07-11T01:26:19.094Z,952.44
2018-07-11T01:27:19.084Z,952.43
2018-07-11T01:28:19.074Z,952.42
2018-07-11T01:29:19.064Z,952.43
2018-07-11T01:30:19.056Z,952.42
2018-07-11T01:31:19.046Z,952.44
2018-07-11T01:32:19.036Z,952.4
2018-07-11T01:33:19.026Z,952.43
2018-07-11T01:34:19.016Z,952.42
2018-07-11T01:35:19.008Z,952.38
2018-07-11T01:36:18.996Z,952.43
2018-07-11T01:37:18.987Z,952.37
2018-07-11T01:38:18.979Z,952.34
2018-07-11T01:39:18.968Z,952.35
2018-07-11T01:40:18.960Z,952.35
2018-07-11T01:41:18.951Z,952.36
2018-07-11T01:42:18.940Z,952.34
2018-07-11T01:43:18.929Z,952.39
2018-07-11T01:44:18.920Z,952.38
2018-07-11T01:45:18.911Z,952.38
2018-07-11T01:46:18.905Z,952.35
2018-07-11T01:47:18.892Z,952.36
2018-07-11T01:48:18.882Z,952.34
2018-07-11T01:49:18.873Z,952.35
2018-07-11T01:50:18.864Z,952.34
2018-07-11T01:51:18.853Z,952.34
2018-07-11T01:52:18.844Z,952.33
2018-07-11T01:53:18.835Z,952.34
2018-07-11T01:54:18.828Z,952.33
2018-07-11T01:55:18.816Z,952.35
2018-07-11T01:56:18.807Z,952.33
2018-07-11T01:57:18.796Z,952.31
2018-07-11T01:58:18.787Z,952.31
2018-07-11T01:59:18.778Z,952.35
2018-07-11T02:00:18.770Z,952.3
2018-07-11T02:01:18.760Z,952.32
2018-07-11T02:02:18.751Z,952.31
2018-07-11T02:03:18.741Z,952.32
2018-07-11T02:04:18.733Z,952.28
2018-07-11T02:05:18.723Z,952.32
2018-07-11T02:06:18.714Z,952.34
2018-07-11T02:07:18.704Z,952.34
2018-07-11T02:08:18.697Z,952.34
2018-07-11T02:09:18.691Z,952.33
2018-07-11T02:10:18.675Z,952.33
2018-07-11T02:11:18.672Z,952.35
2018-07-11T02:12:18.658Z,952.32
2018-07-11T02:13:18.655Z,952.32
2018-07-11T02:14:18.639Z,952.36
2018-07-11T02:15:18.631Z,952.36
2018-07-11T02:16:18.622Z,952.32
2018-07-11T02:17:18.613Z,952.32
2018-07-11T02:18:18.613Z,952.33
2018-07-11T02:19:18.604Z,952.33
2018-07-11T02:20:18.591Z,952.34
2018-07-11T02:21:18.592Z,952.31
2018-07-11T02:22:18.573Z,952.27
2018-07-11T02:23:18.567Z,952.27
2018-07-11T02:24:18.557Z,952.23
2018-07-11T02:25:18.543Z,952.2
2018-07-11T02:26:18.614Z,952.24
2018-07-11T02:27:18.570Z,952.23
2018-07-11T02:28:18.525Z,952.26
2018-07-11T02:29:18.514Z,952.23
2018-07-11T02:30:18.523Z,952.22
2018-07-11T02:31:18.546Z,952.28
2018-07-11T02:32:18.523Z,952.27
2018-07-11T02:33:18.509Z,952.23
2018-07-11T02:34:18.479Z,952.27
2018-07-11T02:35:18.473Z,952.23
2018-07-11T02:36:18.480Z,952.23
2018-07-11T02:37:18.434Z,952.22
2018-07-11T02:38:18.426Z,952.27
2018-07-11T02:39:18.418Z,952.21
2018-07-11T02:40:18.421Z,952.22
2018-07-11T02:41:18.398Z,952.22
2018-07-11T02:42:18.389Z,952.2
2018-07-11T02:43:18.383Z,952.21
2018-07-11T02:44:18.376Z,952.23
2018-07-11T02:45:18.367Z,952.18
2018-07-11T02:46:18.356Z,952.21
2018-07-11T02:47:18.354Z,952.21
2018-07-11T02:48:18.343Z,952.21
2018-07-11T02:49:18.330Z,952.17
2018-07-11T02:50:18.322Z,952.16
2018-07-11T02:51:18.315Z,952.16
2018-07-11T02:52:18.303Z,952.19
2018-07-11T02:53:18.295Z,952.17
2018-07-11T02:54:18.287Z,952.19
2018-07-11T02:55:18.282Z,952.18
2018-07-11T02:56:18.268Z,952.19
2018-07-11T02:57:18.262Z,952.16
2018-07-11T02:58:18.252Z,952.19
2018-07-11T02:59:18.242Z,952.19
2018-07-11T03:00:18.237Z,952.2
2018-07-11T03:01:18.226Z,952.18
2018-07-11T03:02:18.218Z,952.16
2018-07-11T03:03:18.210Z,952.15
2018-07-11T03:04:18.203Z,952.15
2018-07-11T03:05:18.191Z,952.18
2018-07-11T03:06:18.183Z,952.17
2018-07-11T03:07:18.172Z,952.19
2018-07-11T03:08:18.163Z,952.18
2018-07-11T03:09:18.162Z,952.21
2018-07-11T03:10:18.152Z,952.26
2018-07-11T03:11:18.137Z,952.21
2018-07-11T03:12:18.129Z,952.21
2018-07-11T03:13:18.120Z,952.25
2018-07-11T03:14:18.120Z,952.23
2018-07-11T03:15:18.104Z,952.22
2018-07-11T03:16:18.095Z,952.21
2018-07-11T03:17:18.087Z,952.18
2018-07-11T03:18:18.077Z,952.19
2018-07-11T03:19:18.068Z,952.21
2018-07-11T03:20:18.060Z,952.19
2018-07-11T03:21:18.055Z,952.17
2018-07-11T03:22:18.043Z,952.24
2018-07-11T03:23:18.038Z,952.2
2018-07-11T03:24:18.024Z,952.18
2018-07-11T03:25:18.019Z,952.2
2018-07-11T03:26:18.011Z,952.18
2018-07-11T03:27:18.003Z,952.18
2018-07-11T03:28:17.991Z,952.19
2018-07-11T03:29:17.984Z,952.21
2018-07-11T03:30:18.002Z,952.21
2018-07-11T03:31:17.964Z,952.2
2018-07-11T03:32:17.957Z,952.19
2018-07-11T03:33:17.948Z,952.21
2018-07-11T03:34:17.940Z,952.19
2018-07-11T03:35:17.930Z,952.22
2018-07-11T03:36:17.920Z,952.21
2018-07-11T03:37:17.912Z,952.18
2018-07-11T03:38:17.908Z,952.21
2018-07-11T03:39:17.896Z,952.21
2018-07-11T03:40:17.895Z,952.19
2018-07-11T03:41:17.878Z,952.21
2018-07-11T03:42:17.871Z,952.2
2018-07-11T03:43:17.863Z,952.19
2018-07-11T03:44:17.853Z,952.2
2018-07-11T03:45:17.844Z,952.18
2018-07-11T03:46:17.835Z,952.16
2018-07-11T03:47:17.831Z,952.14
2018-07-11T03:48:17.818Z,952.16
2018-07-11T03:49:17.810Z,952.18
2018-07-11T03:50:17.802Z,952.22
2018-07-11T03:51:17.792Z,952.19
2018-07-11T03:52:17.783Z,952.19
2018-07-11T03:53:17.776Z,952.2
2018-07-11T03:54:17.770Z,952.19
2018-07-11T03:55:17.758Z,952.23
2018-07-11T03:56:17.749Z,952.18
2018-07-11T03:57:17.744Z,952.17
2018-07-11T03:58:17.732Z,952.15
2018-07-11T03:59:17.723Z,952.16
2018-07-11T04:00:17.714Z,952.16
2018-07-11T04:01:17.706Z,952.17
2018-07-11T04:02:17.697Z,952.17
2018-07-11T04:03:17.690Z,952.2
2018-07-11T04:04:17.681Z,952.19
2018-07-11T04:05:17.672Z,952.19
2018-07-11T04:06:17.667Z,952.2
2018-07-11T04:07:17.653Z,952.19
2018-07-11T04:08:17.646Z,952.2
2018-07-11T04:09:17.639Z,952.24
2018-07-11T04:10:17.628Z,952.25
2018-07-11T04:11:17.620Z,952.25
2018-07-11T04:12:17.612Z,952.22
2018-07-11T04:13:17.604Z,952.22
2018-07-11T04:14:17.594Z,952.25
2018-07-11T04:15:17.588Z,952.27
2018-07-11T04:16:17.577Z,952.23
2018-07-11T04:17:17.571Z,952.26
2018-07-11T04:18:17.563Z,952.26
2018-07-11T04:19:17.555Z,952.3
2018-07-11T04:20:17.546Z,952.28
2018-07-11T04:21:17.538Z,952.29
2018-07-11T04:22:17.529Z,952.3
2018-07-11T04:23:17.520Z,952.29
2018-07-11T04:24:17.513Z,952.3
2018-07-11T04:25:17.504Z,952.32
2018-07-11T04:26:17.497Z,952.31
2018-07-11T04:27:17.488Z,952.29
2018-07-11T04:28:17.480Z,952.29
2018-07-11T04:29:17.473Z,952.27
2018-07-11T04:30:17.464Z,952.3
2018-07-11T04:31:17.505Z,952.3
2018-07-11T04:32:17.447Z,952.31
2018-07-11T04:33:17.451Z,952.28
2018-07-11T04:34:17.435Z,952.29
2018-07-11T04:35:17.422Z,952.31
2018-07-11T04:36:17.415Z,952.35
2018-07-11T04:37:17.409Z,952.35
2018-07-11T04:38:17.400Z,952.36
2018-07-11T04:39:17.393Z,952.35
2018-07-11T04:40:17.393Z,952.39
2018-07-11T04:41:17.377Z,952.39
2018-07-11T04:42:17.369Z,952.4
2018-07-11T04:43:17.362Z,952.49
2018-07-11T04:44:17.353Z,952.47
2018-07-11T04:45:17.346Z,952.54
2018-07-11T04:46:17.338Z,952.53
2018-07-11T04:47:17.331Z,952.57
2018-07-11T04:48:17.325Z,952.6
2018-07-11T04:49:17.318Z,952.62
2018-07-11T04:50:17.313Z,952.59
2018-07-11T04:51:17.306Z,952.63
2018-07-11T04:52:17.295Z,952.65
2018-07-11T04:53:17.288Z,952.63
2018-07-11T04:54:17.279Z,952.64
2018-07-11T04:55:17.276Z,952.66
2018-07-11T04:56:17.271Z,952.68
2018-07-11T04:57:17.258Z,952.68
2018-07-11T04:58:17.252Z,952.67
2018-07-11T04:59:17.244Z,952.65
2018-07-11T05:00:17.236Z,952.73
2018-07-11T05:01:17.229Z,952.74
2018-07-11T05:02:17.225Z,952.75
2018-07-11T05:03:17.216Z,952.73
2018-07-11T05:04:17.208Z,952.76
2018-07-11T05:05:17.201Z,952.73
2018-07-11T05:06:17.194Z,952.72
2018-07-11T05:07:17.186Z,952.72
2018-07-11T05:08:17.179Z,952.78
2018-07-11T05:09:17.171Z,952.73
2018-07-11T05:10:17.165Z,952.78
2018-07-11T05:11:17.245Z,952.76
2018-07-11T05:12:17.151Z,952.77
2018-07-11T05:13:17.143Z,952.75
2018-07-11T05:14:17.137Z,952.74
2018-07-11T05:15:17.129Z,952.76
2018-07-11T05:16:17.185Z,952.76
2018-07-11T05:17:17.116Z,952.76
2018-07-11T05:18:17.108Z,952.79
2018-07-11T05:19:17.099Z,952.77
2018-07-11T05:20:17.094Z,952.8
2018-07-11T05:21:17.086Z,952.77
2018-07-11T05:22:17.080Z,952.77
2018-07-11T05:23:17.072Z,952.81
2018-07-11T05:24:17.065Z,952.78
2018-07-11T05:25:17.060Z,952.8
2018-07-11T05:26:17.051Z,952.78
2018-07-11T05:27:17.044Z,952.81
2018-07-11T05:28:17.045Z,952.8
2018-07-11T05:29:17.030Z,952.81
2018-07-11T05:30:17.024Z,952.83
2018-07-11T05:31:17.017Z,952.82
2018-07-11T05:32:17.009Z,952.86
2018-07-11T05:33:17.002Z,952.85
2018-07-11T05:34:16.996Z,952.83
2018-07-11T05:35:16.989Z,952.82
2018-07-11T05:36:17.014Z,952.88
2018-07-11T05:37:16.976Z,952.85
2018-07-11T05:38:16.969Z,952.9
2018-07-11T05:39:16.961Z,952.9
2018-07-11T05:40:16.955Z,952.85
2018-07-11T05:41:16.948Z,952.87
2018-07-11T05:42:16.942Z,952.91
2018-07-11T05:43:16.934Z,952.87
2018-07-11T05:44:16.930Z,952.92
2018-07-11T05:45:16.922Z,952.86
2018-07-11T05:46:16.913Z,952.87
2018-07-11T05:47:16.907Z,952.9
2018-07-11T05:48:16.965Z,952.92
2018-07-11T05:49:16.902Z,952.9
2018-07-11T05:50:16.893Z,952.87
2018-07-11T05:51:16.881Z,952.9
2018-07-11T05:52:16.874Z,952.92
2018-07-11T05:53:16.868Z,952.93
2018-07-11T05:54:16.860Z,952.92
2018-07-11T05:55:16.854Z,952.92
2018-07-11T05:56:16.848Z,952.91
2018-07-11T05:57:16.841Z,952.97
2018-07-11T05:58:16.834Z,952.94
2018-07-11T05:59:16.826Z,952.93
2018-07-11T06:00:16.820Z,952.92
2018-07-11T06:01:16.813Z,952.93
2018-07-11T06:02:16.805Z,952.92
2018-07-11T06:03:16.800Z,952.95
2018-07-11T06:04:16.793Z,952.95
2018-07-11T06:05:16.787Z,952.98
2018-07-11T06:06:16.779Z,953
2018-07-11T06:07:16.772Z,952.96
2018-07-11T06:08:16.765Z,952.98
2018-07-11T06:09:16.762Z,952.96
2018-07-11T06:10:16.753Z,952.97
2018-07-11T06:11:16.746Z,952.97
2018-07-11T06:12:16.740Z,952.99
2018-07-11T06:13:16.736Z,952.98
2018-07-11T06:14:16.726Z,952.98
2018-07-11T06:15:16.720Z,952.97
2018-07-11T06:16:16.757Z,952.98
2018-07-11T06:17:16.706Z,952.97
2018-07-11T06:18:16.699Z,952.99
2018-07-11T06:19:16.693Z,952.98
2018-07-11T06:20:16.704Z,952.96
2018-07-11T06:21:16.681Z,952.97
2018-07-11T06:22:16.676Z,953.01
2018-07-11T06:23:16.667Z,952.96
2018-07-11T06:24:16.659Z,952.97
2018-07-11T06:25:16.654Z,953.03
2018-07-11T06:26:16.647Z,953.02
2018-07-11T06:27:16.641Z,953.05
2018-07-11T06:28:16.633Z,953.05
2018-07-11T06:29:16.627Z,953.07
2018-07-11T06:30:16.622Z,953.09
2018-07-11T06:31:16.615Z,953.09
2018-07-11T06:32:16.608Z,953.15
2018-07-11T06:33:16.602Z,953.13
2018-07-11T06:34:16.597Z,953.15
2018-07-11T06:35:16.589Z,953.13
2018-07-11T06:36:16.583Z,953.16
2018-07-11T06:37:16.577Z,953.18
2018-07-11T06:38:16.571Z,953.19
2018-07-11T06:39:16.617Z,953.15
2018-07-11T06:40:16.557Z,953.19
2018-07-11T06:41:16.553Z,953.2
2018-07-11T06:42:16.544Z,953.21
2018-07-11T06:43:16.539Z,953.2
2018-07-11T06:44:16.533Z,953.23
2018-07-11T06:45:16.527Z,953.22
2018-07-11T06:46:16.520Z,953.24
2018-07-11T06:47:16.514Z,953.27
2018-07-11T06:48:16.508Z,953.25
2018-07-11T06:49:16.503Z,953.29
2018-07-11T06:50:16.497Z,953.34
2018-07-11T06:51:16.489Z,953.31
2018-07-11T06:52:16.485Z,953.33
2018-07-11T06:53:16.476Z,953.32
2018-07-11T06:54:16.470Z,953.33
2018-07-11T06:55:16.464Z,953.32
2018-07-11T06:56:16.459Z,953.36
2018-07-11T06:57:16.451Z,953.36
2018-07-11T06:58:16.447Z,953.32
2018-07-11T06:59:16.442Z,953.3
2018-07-11T07:00:16.435Z,953.28
2018-07-11T07:01:16.430Z,953.29
2018-07-11T07:02:16.429Z,953.29
2018-07-11T07:03:16.419Z,953.33
2018-07-11T07:04:16.412Z,953.3
2018-07-11T07:05:16.408Z,953.32
2018-07-11T07:06:16.403Z,953.32
2018-07-11T07:07:16.397Z,953.35
2018-07-11T07:08:16.391Z,953.34
2018-07-11T07:09:16.387Z,953.32
2018-07-11T07:10:16.383Z,953.34
2018-07-11T07:11:16.383Z,953.34
2018-07-11T07:12:16.372Z,953.31
2018-07-11T07:13:16.369Z,953.28
2018-07-11T07:14:16.363Z,953.28
2018-07-11T07:15:16.359Z,953.3
2018-07-11T07:16:16.353Z,953.26
2018-07-11T07:17:16.350Z,953.26
2018-07-11T07:18:16.347Z,953.23
2018-07-11T07:19:16.340Z,953.22
2018-07-11T07:20:16.337Z,953.21
2018-07-11T07:21:16.332Z,953.23
2018-07-11T07:22:16.331Z,953.29
2018-07-11T07:23:16.327Z,953.22
2018-07-11T07:24:16.322Z,953.23
2018-07-11T07:25:16.320Z,953.24
2018-07-11T07:26:16.315Z,953.21
2018-07-11T07:27:16.313Z,953.23
2018-07-11T07:28:16.310Z,953.27
2018-07-11T07:29:16.306Z,953.21
2018-07-11T07:30:16.304Z,953.19
2018-07-11T07:31:16.302Z,953.19
2018-07-11T07:32:16.299Z,953.18
2018-07-11T07:33:16.296Z,953.21
2018-07-11T07:34:16.294Z,953.2
2018-07-11T07:35:16.293Z,953.22
2018-07-11T07:36:16.291Z,953.17
2018-07-11T07:37:16.296Z,953.15
2018-07-11T07:38:16.286Z,953.13
2018-07-11T07:39:16.285Z,953.14
2018-07-11T07:40:16.285Z,953.08
2018-07-11T07:41:16.282Z,953.1
2018-07-11T07:42:16.282Z,953.1
2018-07-11T07:43:16.282Z,953.07
2018-07-11T07:44:16.280Z,953.05
2018-07-11T07:45:16.278Z,953.09
2018-07-11T07:46:16.281Z,953.06
2018-07-11T07:47:16.277Z,953.06
2018-07-11T07:48:16.276Z,953.05
2018-07-11T07:49:16.274Z,953.02
2018-07-11T07:50:16.277Z,953.06
2018-07-11T07:51:16.271Z,953.05
2018-07-11T07:52:16.268Z,953.05
2018-07-11T07:53:16.267Z,953.06
2018-07-11T07:54:16.266Z,953.08
2018-07-11T07:55:16.265Z,953.06
2018-07-11T07:56:16.263Z,953.06
2018-07-11T07:57:16.262Z,953.04
2018-07-11T07:58:16.259Z,953.05
2018-07-11T07:59:16.257Z,953.06
2018-07-11T08:00:16.255Z,953.04
2018-07-11T08:01:16.258Z,953.05
2018-07-11T08:02:16.251Z,953.06
2018-07-11T08:03:16.249Z,953.03
2018-07-11T08:04:16.249Z,953.02
2018-07-11T08:05:16.246Z,953.03
2018-07-11T08:06:16.243Z,953.06
2018-07-11T08:07:16.249Z,953.05
2018-07-11T08:08:16.238Z,953.06
2018-07-11T08:09:16.236Z,953.06
2018-07-11T08:10:16.233Z,953.04
2018-07-11T08:11:16.232Z,953.07
2018-07-11T08:12:16.230Z,953.02
2018-07-11T08:13:16.228Z,953.02
2018-07-11T08:14:16.225Z,953.05
2018-07-11T08:15:16.223Z,953.03
2018-07-11T08:16:16.222Z,953.07
2018-07-11T08:17:16.217Z,953.08
2018-07-11T08:18:16.215Z,953.03
2018-07-11T08:19:16.213Z,953.01
2018-07-11T08:20:16.211Z,953.04
2018-07-11T08:21:16.208Z,953.02
2018-07-11T08:22:16.204Z,953
2018-07-11T08:23:16.202Z,953.01
2018-07-11T08:24:16.201Z,952.99
2018-07-11T08:25:16.198Z,953.04
2018-07-11T08:26:16.196Z,953.05
2018-07-11T08:27:16.216Z,953.05
2018-07-11T08:28:16.190Z,953.02
2018-07-11T08:29:16.190Z,953.04
2018-07-11T08:30:16.186Z,953.06
2018-07-11T08:31:16.185Z,953.07
2018-07-11T08:32:16.181Z,953.04
2018-07-11T08:33:16.181Z,953.03
2018-07-11T08:34:16.177Z,953.04
2018-07-11T08:35:16.230Z,953.05
2018-07-11T08:36:16.173Z,953.05
2018-07-11T08:37:16.172Z,953.02
2018-07-11T08:38:16.169Z,952.99
2018-07-11T08:39:16.167Z,953.04
2018-07-11T08:40:16.165Z,953.02
2018-07-11T08:41:16.161Z,953.05
2018-07-11T08:42:16.161Z,952.97
2018-07-11T08:43:16.160Z,953.02
2018-07-11T08:44:16.156Z,952.99
2018-07-11T08:45:16.153Z,953.02
2018-07-11T08:46:16.153Z,953.03
2018-07-11T08:47:16.150Z,953.02
2018-07-11T08:48:16.165Z,952.97
2018-07-11T08:49:16.146Z,952.97
2018-07-11T08:50:16.142Z,952.96
2018-07-11T08:51:16.142Z,952.99
2018-07-11T08:52:16.139Z,953
2018-07-11T08:53:16.139Z,952.96
2018-07-11T08:54:16.136Z,952.96
2018-07-11T08:55:16.134Z,952.95
2018-07-11T08:56:16.133Z,952.95
2018-07-11T08:57:16.131Z,952.92
2018-07-11T08:58:16.130Z,952.93
2018-07-11T08:59:16.128Z,952.95
2018-07-11T09:00:16.127Z,952.88
2018-07-11T09:01:16.123Z,952.9
2018-07-11T09:02:16.124Z,952.87
2018-07-11T09:03:16.121Z,952.89
2018-07-11T09:04:16.120Z,952.89
2018-07-11T09:05:16.119Z,952.88
2018-07-11T09:06:16.118Z,952.89
2018-07-11T09:07:16.115Z,952.9
2018-07-11T09:08:16.112Z,952.89
2018-07-11T09:09:16.110Z,952.93
2018-07-11T09:10:16.110Z,952.91
2018-07-11T09:11:16.108Z,952.91
2018-07-11T09:12:16.106Z,952.89
2018-07-11T09:13:16.104Z,952.9
2018-07-11T09:14:16.103Z,952.87
2018-07-11T09:15:16.102Z,952.88
2018-07-11T09:16:16.100Z,952.93
2018-07-11T09:17:16.098Z,952.87
2018-07-11T09:18:16.097Z,952.89
2018-07-11T09:19:16.094Z,952.86
2018-07-11T09:20:16.092Z,952.89
2018-07-11T09:21:16.091Z,952.88
2018-07-11T09:22:16.090Z,952.86
2018-07-11T09:23:16.089Z,952.85
2018-07-11T09:24:16.089Z,952.89
2018-07-11T09:25:16.084Z,952.88
2018-07-11T09:26:16.083Z,952.88
2018-07-11T09:27:16.084Z,952.92
2018-07-11T09:28:16.080Z,952.87
2018-07-11T09:29:16.078Z,952.86
2018-07-11T09:30:16.074Z,952.85
2018-07-11T09:31:16.073Z,952.88
2018-07-11T09:32:16.072Z,952.88
2018-07-11T09:33:16.070Z,952.94
2018-07-11T09:34:16.068Z,952.96
2018-07-11T09:35:16.066Z,952.91
2018-07-11T09:36:16.064Z,952.97
2018-07-11T09:37:16.062Z,952.93
2018-07-11T09:38:16.058Z,952.93
2018-07-11T09:39:16.057Z,952.94
2018-07-11T09:40:16.055Z,952.94
2018-07-11T09:41:16.053Z,952.96
2018-07-11T09:42:16.050Z,952.96
2018-07-11T09:43:16.047Z,952.97
2018-07-11T09:44:16.046Z,952.98
2018-07-11T09:45:16.044Z,952.96
2018-07-11T09:46:16.041Z,952.94
2018-07-11T09:47:16.039Z,952.97
2018-07-11T09:48:16.038Z,952.95
2018-07-11T09:49:16.033Z,952.99
2018-07-11T09:50:16.033Z,953.01
2018-07-11T09:51:16.030Z,952.97
2018-07-11T09:52:16.103Z,952.98
2018-07-11T09:53:16.027Z,952.99
2018-07-11T09:54:16.024Z,952.95
2018-07-11T09:55:16.020Z,952.95
2018-07-11T09:56:16.019Z,952.93
2018-07-11T09:57:16.017Z,952.9
2018-07-11T09:58:16.015Z,952.92
2018-07-11T09:59:16.013Z,952.89
2018-07-11T10:00:16.011Z,952.94
2018-07-11T10:01:16.011Z,952.92
2018-07-11T10:02:16.006Z,952.93
2018-07-11T10:03:16.003Z,952.94
2018-07-11T10:04:16.002Z,952.97
2018-07-11T10:05:16.058Z,952.96
2018-07-11T10:06:15.997Z,952.94
2018-07-11T10:07:15.996Z,952.95
2018-07-11T10:08:15.994Z,953.01
2018-07-11T10:09:15.992Z,953.02
2018-07-11T10:10:15.990Z,952.99
2018-07-11T10:11:15.988Z,952.99
2018-07-11T10:12:15.987Z,953.03
2018-07-11T10:13:15.984Z,953
2018-07-11T10:14:15.982Z,953.01
2018-07-11T10:15:15.980Z,953.02
2018-07-11T10:16:15.978Z,953.02
2018-07-11T10:17:15.978Z,952.99
2018-07-11T10:18:15.986Z,953
2018-07-11T10:19:15.972Z,953
2018-07-11T10:20:15.972Z,953.02
2018-07-11T10:21:15.970Z,953.06
2018-07-11T10:22:15.967Z,953.08
2018-07-11T10:23:15.964Z,953.1
2018-07-11T10:24:15.963Z,953.11
2018-07-11T10:25:15.960Z,953.09
2018-07-11T10:26:15.958Z,953.11
2018-07-11T10:27:15.956Z,953.1
2018-07-11T10:28:15.954Z,953.1
2018-07-11T10:29:15.951Z,953.11
2018-07-11T10:30:15.950Z,953.12
2018-07-11T10:31:15.948Z,953.11
2018-07-11T10:32:15.948Z,953.1
2018-07-11T10:33:15.944Z,953.09
2018-07-11T10:34:15.942Z,953.1
2018-07-11T10:35:15.941Z,953.13
2018-07-11T10:36:15.936Z,953.07
2018-07-11T10:37:15.933Z,953.12
2018-07-11T10:38:15.931Z,953.09
2018-07-11T10:39:15.931Z,953.06
2018-07-11T10:40:15.928Z,953.08
2018-07-11T10:41:15.924Z,953.1
2018-07-11T10:42:15.922Z,953.11
2018-07-11T10:43:15.919Z,953.13
2018-07-11T10:44:15.918Z,953.1
2018-07-11T10:45:15.914Z,953.16
2018-07-11T10:46:15.913Z,953.14
2018-07-11T10:47:15.908Z,953.17
2018-07-11T10:48:15.907Z,953.18
2018-07-11T10:49:15.903Z,953.18
2018-07-11T10:50:15.902Z,953.19
2018-07-11T10:51:15.898Z,953.2
2018-07-11T10:52:15.896Z,953.17
2018-07-11T10:53:15.892Z,953.19
2018-07-11T10:54:15.890Z,953.19
2018-07-11T10:55:15.890Z,953.21
2018-07-11T10:56:15.885Z,953.18
2018-07-11T10:57:15.881Z,953.17
2018-07-11T10:58:15.878Z,953.19
2018-07-11T10:59:15.876Z,953.18
2018-07-11T11:00:35.967Z,953.2
2018-07-11T11:01:15.969Z,953.2
2018-07-11T11:02:15.868Z,953.2
2018-07-11T11:03:15.864Z,953.21
2018-07-11T11:04:15.861Z,953.23
2018-07-11T11:05:15.857Z,953.2
2018-07-11T11:06:15.856Z,953.15
2018-07-11T11:07:15.852Z,953.16
2018-07-11T11:08:15.849Z,953.16
2018-07-11T11:09:15.845Z,953.12
2018-07-11T11:10:15.844Z,953.17
2018-07-11T11:11:15.842Z,953.13
2018-07-11T11:12:15.839Z,953.16
2018-07-11T11:13:15.834Z,953.18
2018-07-11T11:14:15.833Z,953.15
2018-07-11T11:15:15.832Z,953.09
2018-07-11T11:16:15.827Z,953.1
2018-07-11T11:17:15.825Z,953.08
2018-07-11T11:18:15.823Z,953.06
2018-07-11T11:19:15.823Z,953.07
2018-07-11T11:20:15.819Z,953.07
2018-07-11T11:21:15.813Z,953.05
2018-07-11T11:22:15.811Z,953.08
2018-07-11T11:23:15.809Z,953.05
2018-07-11T11:24:15.805Z,953.05
2018-07-11T11:25:15.803Z,953.05
2018-07-11T11:26:15.801Z,953.06
2018-07-11T11:27:15.798Z,953.02
2018-07-11T11:28:15.796Z,953.06
2018-07-11T11:29:15.794Z,953.03
2018-07-11T11:30:15.791Z,953.07
2018-07-11T11:31:15.791Z,953.08
2018-07-11T11:32:15.792Z,953.09
2018-07-11T11:33:15.785Z,953.07
2018-07-11T11:34:15.784Z,953.09
2018-07-11T11:35:15.780Z,953.11
2018-07-11T11:36:15.777Z,953.1
2018-07-11T11:37:15.777Z,953.09
2018-07-11T11:38:15.773Z,953.12
2018-07-11T11:39:15.770Z,953.1
2018-07-11T11:40:15.770Z,953.08
2018-07-11T11:41:15.767Z,953.12
2018-07-11T11:42:16.014Z,953.11
2018-07-11T11:43:15.762Z,953.09
2018-07-11T11:44:15.760Z,953.07
2018-07-11T11:45:15.759Z,953.08
2018-07-11T11:46:15.755Z,953.06
2018-07-11T11:47:15.752Z,953.04
2018-07-11T11:48:15.751Z,953.05
2018-07-11T11:49:15.749Z,953.06
2018-07-11T11:50:15.746Z,953.02
2018-07-11T11:51:15.743Z,953.07
2018-07-11T11:52:15.741Z,953.04
2018-07-11T11:53:15.738Z,953.04
2018-07-11T11:54:15.734Z,953.07
2018-07-11T11:55:15.734Z,953.09
2018-07-11T11:56:15.733Z,953.09
2018-07-11T11:57:15.729Z,953.13
2018-07-11T11:58:15.726Z,953.1
2018-07-11T11:59:15.724Z,953.11
2018-07-11T12:00:15.721Z,953.1
2018-07-11T12:01:15.718Z,953.09
2018-07-11T12:02:15.715Z,953.09
2018-07-11T12:03:15.713Z,953.12
2018-07-11T12:04:15.710Z,953.1
2018-07-11T12:05:15.707Z,953.1
2018-07-11T12:06:15.705Z,953.13
2018-07-11T12:07:15.706Z,953.09
2018-07-11T12:08:15.698Z,953.09
2018-07-11T12:09:15.697Z,953.08
2018-07-11T12:10:15.694Z,953.05
2018-07-11T12:11:15.691Z,953.1
2018-07-11T12:12:15.689Z,953.05
2018-07-11T12:13:15.688Z,953.09
2018-07-11T12:14:15.682Z,953.08
2018-07-11T12:15:15.681Z,953.07
2018-07-11T12:16:15.678Z,953.07
2018-07-11T12:17:15.677Z,953.07
2018-07-11T12:18:15.672Z,953.05
2018-07-11T12:19:15.670Z,953.09
2018-07-11T12:20:15.666Z,953.14
2018-07-11T12:21:15.791Z,953.16
2018-07-11T12:22:15.662Z,953.18
2018-07-11T12:23:15.661Z,953.15
2018-07-11T12:24:15.658Z,953.15
2018-07-11T12:25:15.657Z,953.14
2018-07-11T12:26:15.653Z,953.17
2018-07-11T12:27:15.649Z,953.17
2018-07-11T12:28:15.648Z,953.16
2018-07-11T12:29:15.646Z,953.2
2018-07-11T12:30:15.643Z,953.14
2018-07-11T12:31:15.645Z,953.13